Time;durP1;ratioP1;P1;durP2;ratioP2;P2;SDS_P1;SDS_P2;PMS_P1;PMS_P2;Temp;Humidity;BMP_temperature;BMP_pressure;BME280_temperature;BME280_humidity;BME280_pressure;Samples;Min_cycle;Max_cycle;Signal;HPM_P1;HPM_P2
2022/04/21 05:00:21;;;;;;;8.57;5.83;;;4.70;99.90;;;;;;6143048;22;20020;-80
2022/04/21 05:02:48;;;;;;;8.63;5.75;;;4.50;99.90;;;;;;4949147;28;20054;-81
2022/04/21 05:05:15;;;;;;;8.23;5.68;;;4.70;99.90;;;;;;4975409;28;20127;-82
2022/04/21 05:07:42;;;;;;;9.90;6.15;;;4.60;99.90;;;;;;4975596;28;20098;-81
2022/04/21 05:10:10;;;;;;;8.80;5.68;;;4.60;99.90;;;;;;4975592;28;20134;-80
2022/04/21 05:12:37;;;;;;;7.90;5.60;;;4.60;99.90;;;;;;4976215;28;20134;-83
2022/04/21 05:15:06;;;;;;;9.35;6.30;;;4.80;99.90;;;;;;4976215;28;20137;-82
2022/04/21 05:17:36;;;;;;;9.75;6.00;;;4.80;99.90;;;;;;4975321;28;20105;-82
2022/04/21 05:20:04;;;;;;;9.25;6.53;;;4.90;99.90;;;;;;4975228;28;20053;-81
2022/04/21 05:22:37;;;;;;;8.80;6.18;;;5.00;99.90;;;;;;4975452;28;20054;-81
2022/04/21 05:25:06;;;;;;;9.13;6.63;;;4.90;99.90;;;;;;4975197;28;20153;-81
2022/04/21 05:27:35;;;;;;;9.98;6.47;;;5.00;99.90;;;;;;4974541;28;20051;-82
2022/04/21 05:32:53;;;;;;;8.77;6.20;;;5.10;99.90;;;;;;4975347;28;20057;-81
2022/04/21 05:35:21;;;;;;;9.73;5.80;;;5.10;99.90;;;;;;4974677;28;20054;-80
2022/04/21 05:37:48;;;;;;;8.43;5.95;;;5.30;99.90;;;;;;4974415;28;20051;-80
2022/04/21 05:40:17;;;;;;;8.98;6.10;;;5.30;99.90;;;;;;4957426;28;20051;-82
2022/04/21 05:42:50;;;;;;;7.88;5.78;;;5.30;99.90;;;;;;4957657;28;20057;-81
2022/04/21 05:45:18;;;;;;;10.73;6.60;;;5.20;99.90;;;;;;4975287;28;20051;-80
2022/04/21 05:47:48;;;;;;;8.75;5.80;;;5.40;99.90;;;;;;4974533;28;20456;-82
2022/04/21 05:50:17;;;;;;;9.30;5.80;;;5.50;99.90;;;;;;4974764;28;20046;-81
2022/04/21 05:52:45;;;;;;;8.15;5.68;;;5.60;99.90;;;;;;4974267;28;20057;-81
2022/04/21 05:55:16;;;;;;;10.23;5.57;;;5.60;99.90;;;;;;4957561;28;20054;-82
2022/04/21 05:57:44;;;;;;;8.23;5.97;;;5.60;99.90;;;;;;4974931;28;20046;-81
2022/04/21 06:00:12;;;;;;;11.55;6.47;;;5.70;99.90;;;;;;4975071;28;20373;-80
2022/04/21 06:02:39;;;;;;;8.77;6.05;;;5.50;99.90;;;;;;4974297;28;20051;-80
2022/04/21 06:05:08;;;;;;;10.30;6.63;;;5.60;99.90;;;;;;4974446;28;20130;-80
2022/04/21 06:07:36;;;;;;;9.00;6.18;;;5.70;99.90;;;;;;4976272;28;20046;-82
2022/04/21 06:10:03;;;;;;;8.75;6.28;;;5.60;99.90;;;;;;4974683;28;20142;-81
2022/04/21 06:12:30;;;;;;;9.32;6.53;;;5.50;99.90;;;;;;4975087;28;20059;-80
2022/04/21 06:14:57;;;;;;;11.15;6.63;;;5.50;99.90;;;;;;4974347;28;20047;-80
2022/04/21 06:17:25;;;;;;;10.77;6.93;;;5.20;99.90;;;;;;4974192;28;20065;-81
2022/04/21 06:19:52;;;;;;;10.35;7.25;;;5.50;99.90;;;;;;4975144;28;20078;-81
2022/04/21 06:22:20;;;;;;;10.20;6.20;;;5.30;99.90;;;;;;4977195;28;20050;-82
2022/04/21 06:24:47;;;;;;;9.43;6.93;;;5.40;99.90;;;;;;4976215;28;20057;-81
2022/04/21 06:27:14;;;;;;;9.68;7.05;;;5.40;99.90;;;;;;4976657;28;20054;-80
2022/04/21 06:29:41;;;;;;;9.38;7.10;;;5.40;99.90;;;;;;4977047;28;20137;-82
2022/04/21 06:32:09;;;;;;;9.98;7.20;;;5.50;99.90;;;;;;4976249;28;20326;-82
2022/04/21 06:34:36;;;;;;;9.13;7.10;;;5.60;99.90;;;;;;4976138;28;20137;-82
2022/04/21 06:37:03;;;;;;;11.25;7.40;;;5.80;99.90;;;;;;4976223;28;20055;-82
2022/04/21 06:39:32;;;;;;;10.00;6.85;;;5.80;99.90;;;;;;4974517;28;20061;-80
2022/04/21 06:41:59;;;;;;;11.10;7.40;;;6.00;99.90;;;;;;4974337;28;20090;-81
2022/04/21 06:49:55;;;;;;;11.60;8.15;;;6.40;99.90;;;;;;4968993;28;20415;-80
2022/04/21 06:52:22;;;;;;;12.65;8.07;;;6.50;99.90;;;;;;4978051;28;20092;-80
2022/04/21 06:54:51;;;;;;;11.45;7.95;;;6.60;99.90;;;;;;4977744;28;20055;-79
2022/04/21 06:57:18;;;;;;;12.82;9.20;;;6.70;99.90;;;;;;4977845;28;20057;-80
2022/04/21 06:59:45;;;;;;;14.48;10.88;;;6.80;99.90;;;;;;4977659;28;20102;-79
2022/04/21 07:02:13;;;;;;;14.90;10.45;;;6.70;99.90;;;;;;4976191;28;20046;-81
2022/04/21 07:04:40;;;;;;;20.25;11.43;;;6.70;99.90;;;;;;4977721;28;20460;-79
2022/04/21 07:07:08;;;;;;;20.80;12.60;;;6.90;99.90;;;;;;4977635;28;20050;-81
2022/04/21 07:09:35;;;;;;;21.77;11.88;;;6.90;99.90;;;;;;4977423;28;20133;-80
2022/04/21 07:12:04;;;;;;;16.73;11.05;;;7.00;99.90;;;;;;4976847;28;20050;-81
2022/04/21 07:14:31;;;;;;;16.02;10.75;;;7.10;99.90;;;;;;4977605;28;20047;-78
2022/04/21 07:16:58;;;;;;;13.82;10.00;;;7.20;99.90;;;;;;4977410;28;20047;-80
2022/04/21 07:19:25;;;;;;;13.55;10.00;;;7.30;99.90;;;;;;4977444;28;20142;-81
2022/04/21 07:21:52;;;;;;;17.02;10.15;;;7.40;99.90;;;;;;4977685;28;20480;-81
2022/04/21 07:24:19;;;;;;;18.63;12.43;;;7.40;99.90;;;;;;4977540;28;20134;-80
2022/04/21 07:26:46;;;;;;;14.48;11.10;;;7.40;99.90;;;;;;4977697;28;20050;-80
2022/04/21 07:29:15;;;;;;;15.52;10.48;;;7.60;99.90;;;;;;4977078;28;20046;-81
2022/04/21 07:31:42;;;;;;;12.82;9.73;;;7.70;99.90;;;;;;4977220;28;20114;-82
2022/04/21 07:34:09;;;;;;;14.32;10.43;;;7.80;99.90;;;;;;4977529;28;20090;-81
2022/04/21 07:36:36;;;;;;;12.45;9.70;;;7.90;99.90;;;;;;4977099;28;20058;-80
2022/04/21 07:39:03;;;;;;;13.25;10.25;;;7.90;99.90;;;;;;4977960;28;20046;-80
2022/04/21 07:41:30;;;;;;;14.75;11.40;;;8.10;99.90;;;;;;4977403;28;20403;-80
2022/04/21 07:43:57;;;;;;;14.35;11.55;;;8.10;99.90;;;;;;4976979;28;20137;-80
2022/04/21 07:46:26;;;;;;;15.55;10.40;;;8.10;99.90;;;;;;4976859;28;20129;-80
2022/04/21 07:51:37;;;;;;;;;;;8.40;99.90;;;;;;4977219;28;20109;-80
2022/04/21 07:54:03;;;;;;;17.35;12.23;;;8.40;99.90;;;;;;4976503;28;19922;-79
2022/04/21 07:56:30;;;;;;;19.38;12.63;;;8.50;99.60;;;;;;4976648;28;20050;-80
2022/04/21 07:58:57;;;;;;;14.63;11.43;;;8.60;99.80;;;;;;4976320;28;20137;-80
2022/04/21 08:01:26;;;;;;;14.75;11.00;;;8.80;99.50;;;;;;4975584;28;20061;-79
2022/04/21 08:03:53;;;;;;;15.05;11.50;;;8.90;99.10;;;;;;4976444;28;20053;-80
2022/04/21 08:06:20;;;;;;;14.52;11.18;;;9.00;99.00;;;;;;4976640;28;20061;-80
2022/04/21 08:08:47;;;;;;;14.75;11.05;;;9.00;98.80;;;;;;4976748;28;20051;-79
2022/04/21 08:11:15;;;;;;;15.45;11.40;;;9.10;98.90;;;;;;4976647;28;20047;-78
2022/04/21 08:13:42;;;;;;;17.83;11.50;;;9.20;98.80;;;;;;4968312;28;20055;-79
2022/04/21 08:16:09;;;;;;;14.55;12.05;;;9.30;97.70;;;;;;4971599;28;20050;-78
2022/04/21 08:18:37;;;;;;;14.13;10.80;;;9.40;97.00;;;;;;4973726;28;20950;-80
2022/04/21 08:21:04;;;;;;;14.90;11.00;;;9.40;96.50;;;;;;4973395;28;20415;-78
2022/04/21 08:23:31;;;;;;;15.55;10.75;;;9.60;96.80;;;;;;4973723;28;20055;-80
2022/04/21 08:34:22;;;;;;;18.10;11.88;;;9.90;96.20;;;;;;4971754;28;20089;-79
2022/04/21 08:36:49;;;;;;;16.15;12.38;;;10.00;96.30;;;;;;4956366;28;20058;-80
2022/04/21 08:39:16;;;;;;;14.60;11.02;;;10.00;95.80;;;;;;4956432;28;20109;-80
2022/04/21 08:41:49;;;;;;;14.48;11.05;;;10.00;95.90;;;;;;4973556;28;20051;-80
2022/04/21 08:44:20;;;;;;;14.05;10.43;;;10.30;95.70;;;;;;4972926;28;20046;-79
2022/04/21 08:46:49;;;;;;;14.82;11.00;;;10.10;95.50;;;;;;4973300;28;20069;-77
2022/04/21 08:49:19;;;;;;;13.77;10.70;;;10.20;95.30;;;;;;4973259;28;20142;-79
2022/04/21 08:51:48;;;;;;;13.75;10.75;;;10.40;95.30;;;;;;4970295;28;20047;-80
2022/04/21 08:54:16;;;;;;;12.82;9.70;;;10.50;95.00;;;;;;4972448;28;20142;-79
2022/04/21 08:56:43;;;;;;;13.65;10.30;;;10.50;94.70;;;;;;4972977;28;20055;-80
2022/04/21 08:59:10;;;;;;;12.95;10.45;;;10.50;94.60;;;;;;4973054;28;20102;-80
2022/04/21 09:01:37;;;;;;;11.55;9.20;;;10.50;94.30;;;;;;4972200;28;20483;-79
2022/04/21 09:04:05;;;;;;;14.70;10.93;;;10.60;94.10;;;;;;4971766;28;20054;-78
2022/04/21 09:06:32;;;;;;;14.32;10.18;;;10.70;93.40;;;;;;4973146;28;20051;-79
2022/04/21 09:09:21;;;;;;;12.98;9.32;;;10.70;93.00;;;;;;4972082;28;20411;-78
2022/04/21 09:11:51;;;;;;;11.05;8.30;;;10.90;93.00;;;;;;4972310;28;20051;-79
2022/04/21 09:14:20;;;;;;;11.13;8.05;;;11.00;92.70;;;;;;4972184;28;20081;-81
2022/04/21 09:16:48;;;;;;;11.77;8.45;;;11.20;91.50;;;;;;4972615;28;20223;-79
2022/04/21 09:19:15;;;;;;;12.27;8.30;;;11.20;91.10;;;;;;4972055;28;20065;-80
2022/04/21 09:21:43;;;;;;;10.25;7.47;;;11.20;90.50;;;;;;4972942;28;20047;-80
2022/04/21 09:24:29;;;;;;;9.75;7.25;;;11.30;90.60;;;;;;4972655;28;20590;-79
2022/04/21 09:26:57;;;;;;;10.35;6.75;;;11.40;90.30;;;;;;4972154;28;20046;-81
2022/04/21 09:29:28;;;;;;;9.43;6.75;;;11.60;87.70;;;;;;4972411;28;20389;-80
2022/04/21 09:31:59;;;;;;;9.25;6.38;;;11.50;85.00;;;;;;4972256;28;20053;-81
2022/04/21 09:34:27;;;;;;;9.02;6.47;;;11.60;84.00;;;;;;4970368;28;20146;-82
2022/04/21 09:36:56;;;;;;;9.93;6.28;;;11.60;81.50;;;;;;4972134;28;20101;-80
2022/04/21 09:39:24;;;;;;;10.30;7.50;;;11.60;78.50;;;;;;4971618;28;20058;-79
2022/04/21 09:41:55;;;;;;;9.50;6.55;;;11.80;81.10;;;;;;4971555;28;20046;-81
2022/04/21 09:47:19;;;;;;;8.65;5.80;;;11.90;81.40;;;;;;4973245;28;20054;-80
2022/04/21 09:49:47;;;;;;;8.68;5.72;;;11.90;78.90;;;;;;4972832;28;20154;-80
2022/04/21 09:52:26;;;;;;;8.10;6.00;;;12.00;79.90;;;;;;4971347;28;20058;-80
2022/04/21 09:54:53;;;;;;;8.93;6.25;;;12.00;80.00;;;;;;4971635;28;20057;-79
2022/04/21 09:57:31;;;;;;;8.52;6.03;;;12.10;79.70;;;;;;4971667;28;20193;-80
2022/04/21 09:59:59;;;;;;;7.75;5.35;;;12.10;79.50;;;;;;4971518;28;20051;-79
2022/04/21 10:02:29;;;;;;;7.75;5.70;;;12.20;79.40;;;;;;4970773;28;20058;-79
2022/04/21 10:04:57;;;;;;;7.30;5.25;;;12.30;76.40;;;;;;4972889;28;20082;-78
2022/04/21 10:07:25;;;;;;;8.20;6.18;;;12.40;75.60;;;;;;4971229;28;20053;-78
2022/04/21 10:09:54;;;;;;;7.43;5.40;;;12.50;77.70;;;;;;4971549;28;20531;-78
2022/04/21 10:12:22;;;;;;;8.38;5.28;;;12.50;78.60;;;;;;4971784;28;20101;-78
2022/04/21 10:14:51;;;;;;;6.93;4.88;;;12.70;78.00;;;;;;4973121;28;20047;-78
2022/04/21 10:17:18;;;;;;;8.45;6.07;;;12.80;80.00;;;;;;4972184;28;20061;-79
2022/04/21 10:19:50;;;;;;;9.88;7.00;;;12.80;77.90;;;;;;4971528;28;20047;-79
2022/04/21 10:22:18;;;;;;;11.02;7.63;;;12.80;78.70;;;;;;4971357;28;20061;-78
2022/04/21 10:24:46;;;;;;;9.75;7.00;;;12.70;79.20;;;;;;4971543;28;20057;-79
2022/04/21 10:27:42;;;;;;;8.63;6.38;;;12.90;80.20;;;;;;4975393;28;20050;-78
2022/04/21 10:30:22;;;;;;;7.15;5.45;;;13.20;78.50;;;;;;4975726;28;20050;-79
2022/04/21 10:32:55;;;;;;;6.65;4.95;;;13.20;74.90;;;;;;4974378;28;20051;-78
2022/04/21 10:35:49;;;;;;;8.57;6.10;;;13.30;76.60;;;;;;4975774;28;20141;-77
2022/04/21 10:38:26;;;;;;;7.95;5.82;;;13.30;77.10;;;;;;4975807;28;20102;-79
2022/04/21 10:41:00;;;;;;;8.30;6.25;;;13.30;77.00;;;;;;4975984;28;20059;-80
2022/04/21 10:44:02;;;;;;;9.32;6.65;;;13.20;78.20;;;;;;4975386;28;20463;-78
2022/04/21 10:46:31;;;;;;;9.05;6.25;;;13.30;77.50;;;;;;4974590;28;20051;-78
2022/04/21 10:49:00;;;;;;;7.05;5.30;;;13.50;78.00;;;;;;4975262;28;20117;-78
2022/04/21 10:58:52;;;;;;;7.97;5.38;;;13.50;74.20;;;;;;4975019;28;20057;-78
2022/04/21 11:01:34;;;;;;;8.70;6.43;;;13.70;76.90;;;;;;4914979;29;20226;-77
2022/04/21 11:04:24;;;;;;;9.98;6.13;;;13.70;75.40;;;;;;4977865;28;20508;-82
2022/04/21 11:06:54;;;;;;;6.75;5.03;;;13.80;76.60;;;;;;4976057;28;20165;-83
2022/04/21 11:09:51;;;;;;;6.18;4.75;;;14.20;76.70;;;;;;4976599;28;20054;-83
2022/04/21 11:12:43;;;;;;;7.70;5.60;;;14.30;74.30;;;;;;4959627;28;20073;-81
2022/04/21 11:15:36;;;;;;;7.22;4.80;;;14.30;74.10;;;;;;4976500;28;20051;-81
2022/04/21 11:18:09;;;;;;;7.43;5.25;;;14.30;75.90;;;;;;4969255;28;20525;-82
2022/04/21 11:20:37;;;;;;;6.72;4.55;;;14.30;74.50;;;;;;4976695;28;20047;-83
2022/04/21 11:23:04;;;;;;;6.50;5.20;;;14.40;74.00;;;;;;4974784;28;20054;-78
2022/04/21 11:25:33;;;;;;;6.88;4.97;;;14.40;73.40;;;;;;4974117;28;20059;-78
2022/04/21 11:28:02;;;;;;;6.53;4.40;;;14.40;74.00;;;;;;4977330;28;20107;-79
2022/04/21 11:30:30;;;;;;;9.27;5.88;;;14.60;73.50;;;;;;4994742;28;20158;-78
2022/04/21 11:32:57;;;;;;;7.10;4.60;;;14.30;71.60;;;;;;4982139;28;20054;-78
2022/04/21 11:35:26;;;;;;;5.70;3.75;;;14.40;72.90;;;;;;4974285;28;20046;-77
2022/04/21 11:37:57;;;;;;;5.35;3.55;;;14.60;73.10;;;;;;4973098;28;20051;-78
2022/04/21 11:40:28;;;;;;;6.72;3.90;;;14.80;72.80;;;;;;4973999;28;20510;-78
2022/04/21 11:42:57;;;;;;;6.38;4.30;;;14.90;72.10;;;;;;4975104;28;20054;-77
2022/04/21 11:45:27;;;;;;;6.07;4.00;;;14.80;71.90;;;;;;4974988;28;20058;-76
2022/04/21 11:47:54;;;;;;;7.10;5.05;;;15.00;72.10;;;;;;4956411;28;20061;-76
2022/04/21 11:50:26;;;;;;;6.68;4.60;;;14.80;70.90;;;;;;4954223;29;20515;-79
2022/04/21 11:52:54;;;;;;;7.55;5.20;;;15.10;70.70;;;;;;4954656;29;20047;-78
2022/04/21 11:55:28;;;;;;;6.43;3.72;;;15.10;70.70;;;;;;4954373;29;20056;-79
2022/04/21 11:57:56;;;;;;;7.15;4.90;;;15.20;71.10;;;;;;4954695;29;20521;-78
2022/04/21 12:08:46;;;;;;;5.10;3.20;;;15.50;69.20;;;;;;4955190;29;20069;-77
2022/04/21 12:11:17;;;;;;;6.75;4.20;;;15.80;68.80;;;;;;4955436;29;20148;-78
2022/04/21 12:13:45;;;;;;;6.32;3.70;;;15.80;67.90;;;;;;4954502;29;20055;-77
2022/04/21 12:16:50;;;;;;;5.18;3.47;;;15.90;67.90;;;;;;4953958;29;20421;-78
2022/04/21 12:19:29;;;;;;;4.70;3.10;;;16.00;67.00;;;;;;4955424;29;20047;-78
2022/04/21 12:22:01;;;;;;;4.05;2.92;;;16.40;67.80;;;;;;4954920;29;20106;-76
2022/04/21 12:24:31;;;;;;;5.30;3.30;;;16.50;66.50;;;;;;4972235;28;20142;-79
2022/04/21 12:26:59;;;;;;;5.13;2.85;;;16.50;65.30;;;;;;4993024;28;20157;-77
2022/04/21 12:29:29;;;;;;;4.10;2.60;;;16.70;65.70;;;;;;4993676;28;20055;-81
2022/04/21 12:32:00;;;;;;;4.43;2.60;;;16.60;65.10;;;;;;4993390;28;20100;-77
2022/04/21 12:34:30;;;;;;;4.28;2.80;;;16.80;65.20;;;;;;4992114;28;20081;-83
2022/04/21 12:37:02;;;;;;;4.85;3.17;;;16.70;64.10;;;;;;4995607;28;20065;-82
2022/04/21 12:39:31;;;;;;;3.80;2.33;;;16.80;64.00;;;;;;4994508;28;20463;-80
2022/04/21 12:42:01;;;;;;;5.45;3.90;;;17.10;64.40;;;;;;4990495;28;20051;-81
2022/04/21 12:44:29;;;;;;;4.80;2.80;;;16.70;63.40;;;;;;4980806;28;20046;-80
2022/04/21 12:47:01;;;;;;;4.63;3.13;;;16.50;65.10;;;;;;4992960;28;20058;-81
2022/04/21 12:50:08;;;;;;;4.43;2.95;;;16.50;64.50;;;;;;4977935;28;20067;-81
2022/04/21 12:52:42;;;;;;;4.55;2.80;;;16.40;64.80;;;;;;4973147;28;20061;-81
2022/04/21 12:55:13;;;;;;;4.22;2.88;;;16.40;65.00;;;;;;4972887;28;20055;-79
2022/04/21 12:57:41;;;;;;;4.40;2.53;;;16.60;65.60;;;;;;4973255;28;20050;-81
2022/04/21 13:00:13;;;;;;;3.90;2.50;;;17.00;64.50;;;;;;4973008;28;20050;-81
2022/04/21 13:02:40;;;;;;;3.88;2.20;;;17.00;63.80;;;;;;4972664;28;20055;-81
2022/04/21 13:05:08;;;;;;;3.97;2.33;;;17.00;63.30;;;;;;4973289;28;20077;-81
2022/04/21 13:07:41;;;;;;;4.22;2.50;;;17.20;63.90;;;;;;4970936;28;20058;-79
2022/04/21 13:10:09;;;;;;;3.97;2.08;;;17.30;62.50;;;;;;4972203;28;20510;-78
2022/04/21 13:12:36;;;;;;;4.93;2.38;;;17.00;63.60;;;;;;4973125;28;20137;-80
2022/04/21 13:15:05;;;;;;;3.38;2.08;;;16.90;63.20;;;;;;4972031;28;20069;-78
2022/04/21 13:17:32;;;;;;;3.47;2.10;;;16.70;63.20;;;;;;4972371;28;20121;-78
2022/04/21 13:20:01;;;;;;;5.10;2.10;;;17.20;63.60;;;;;;4990081;28;20050;-78
2022/04/21 13:22:28;;;;;;;4.15;2.50;;;17.90;63.60;;;;;;4992239;28;20056;-79
2022/04/21 13:24:56;;;;;;;3.38;1.80;;;18.20;62.20;;;;;;4983111;28;20082;-78
2022/04/21 13:27:26;;;;;;;4.28;1.92;;;18.40;61.50;;;;;;4971452;28;20420;-77
2022/04/21 13:29:53;;;;;;;3.78;2.00;;;18.80;60.00;;;;;;4953284;28;20055;-78
2022/04/21 13:35:07;;;;;;;4.85;2.33;;;19.10;58.40;;;;;;4952801;29;20062;-77
2022/04/21 13:37:35;;;;;;;3.88;2.25;;;19.20;58.80;;;;;;4962940;28;20480;-76
2022/04/21 13:40:04;;;;;;;3.80;2.15;;;19.50;58.20;;;;;;4971693;28;20058;-78
2022/04/21 13:42:33;;;;;;;4.50;2.35;;;18.90;57.80;;;;;;4973613;28;20062;-83
2022/04/21 13:45:01;;;;;;;3.88;1.80;;;18.30;58.50;;;;;;4973605;28;20073;-82
2022/04/21 13:47:28;;;;;;;3.33;1.90;;;18.60;58.30;;;;;;4972831;28;20058;-79
2022/04/21 13:49:55;;;;;;;4.22;2.30;;;18.50;58.40;;;;;;4972511;28;20054;-80
2022/04/21 13:52:22;;;;;;;3.38;2.13;;;18.40;58.20;;;;;;4979843;28;20061;-83
2022/04/21 13:54:50;;;;;;;5.15;2.17;;;18.10;58.80;;;;;;4963743;28;20057;-83
2022/04/21 13:57:18;;;;;;;3.47;1.90;;;18.00;59.70;;;;;;4973302;28;20050;-81
2022/04/21 13:59:45;;;;;;;2.80;1.52;;;18.40;58.20;;;;;;4971257;28;20068;-81
2022/04/21 14:02:13;;;;;;;3.53;1.80;;;18.60;58.80;;;;;;4971636;28;20085;-82
2022/04/21 14:04:40;;;;;;;4.65;2.80;;;19.30;56.20;;;;;;4954884;28;20043;-81
2022/04/21 14:07:07;;;;;;;5.07;2.97;;;20.10;54.60;;;;;;4954320;28;20054;-80
2022/04/21 14:09:34;;;;;;;4.43;2.33;;;21.30;52.50;;;;;;4972035;28;20104;-83
2022/04/21 14:12:01;;;;;;;5.13;2.55;;;21.40;51.00;;;;;;4971627;28;20061;-82
2022/04/21 14:14:31;;;;;;;3.40;1.80;;;20.60;53.30;;;;;;4971403;28;20055;-82
2022/04/21 14:16:59;;;;;;;3.63;1.83;;;19.70;52.30;;;;;;4971948;28;20141;-83
2022/04/21 14:19:28;;;;;;;3.63;2.03;;;19.10;54.20;;;;;;4971753;28;20108;-81
2022/04/21 14:21:55;;;;;;;3.88;1.95;;;18.60;54.10;;;;;;4971863;28;20054;-82
2022/04/21 14:24:22;;;;;;;4.60;2.30;;;18.30;54.70;;;;;;4972267;28;20130;-82
2022/04/21 14:26:49;;;;;;;3.13;2.00;;;18.10;55.20;;;;;;4971586;28;20057;-83
2022/04/21 14:29:16;;;;;;;3.03;1.77;;;17.90;56.50;;;;;;4972031;28;20146;-84
2022/04/21 14:31:45;;;;;;;4.53;2.20;;;18.20;55.90;;;;;;4971948;28;20053;-82
2022/04/21 14:34:12;;;;;;;6.53;2.78;;;17.70;56.40;;;;;;4969642;28;20649;-81
2022/04/21 14:36:39;;;;;;;3.25;2.00;;;18.00;56.30;;;;;;4971605;28;20428;-81
2022/04/21 14:44:36;;;;;;;3.97;2.20;;;18.40;55.80;;;;;;4956894;28;20066;-79
2022/04/21 14:47:07;;;;;;;3.58;2.08;;;18.20;55.70;;;;;;4971310;28;20137;-79
2022/04/21 14:49:36;;;;;;;3.05;1.90;;;18.30;56.50;;;;;;4971473;28;20046;-79
2022/04/21 14:52:03;;;;;;;3.22;1.83;;;18.40;55.50;;;;;;4971193;28;20059;-79
2022/04/21 14:54:31;;;;;;;2.97;1.77;;;18.20;55.20;;;;;;4971433;28;20407;-79
2022/04/21 14:56:58;;;;;;;2.90;1.75;;;18.20;56.20;;;;;;4969000;28;20047;-79
2022/04/21 14:59:25;;;;;;;3.38;1.70;;;18.20;56.30;;;;;;4969618;28;20043;-85
2022/04/21 15:01:55;;;;;;;4.93;1.55;;;18.30;54.90;;;;;;4969868;28;20089;-83
2022/04/21 15:04:25;;;;;;;3.83;2.00;;;18.20;54.80;;;;;;4971157;28;20482;-81
2022/04/21 15:06:52;;;;;;;4.32;1.98;;;17.90;54.70;;;;;;4971312;28;20520;-82
2022/04/21 15:09:19;;;;;;;3.33;1.80;;;17.80;55.80;;;;;;4970873;28;20061;-80
2022/04/21 15:11:48;;;;;;;2.80;1.60;;;17.90;56.90;;;;;;4973546;28;20393;-82
2022/04/21 15:14:15;;;;;;;2.78;1.65;;;17.90;56.00;;;;;;4974741;28;20081;-82
2022/04/21 15:16:42;;;;;;;3.33;1.67;;;17.60;56.20;;;;;;4966462;28;20061;-82
2022/04/21 15:19:09;;;;;;;2.97;1.80;;;17.60;55.90;;;;;;4973971;28;20051;-82
2022/04/21 15:21:39;;;;;;;3.67;2.05;;;17.40;56.30;;;;;;4958009;28;20063;-83
2022/04/21 15:24:07;;;;;;;4.03;2.08;;;17.00;57.40;;;;;;4974796;28;20484;-83
2022/04/21 15:26:34;;;;;;;3.45;2.10;;;17.00;57.50;;;;;;4974105;28;20331;-83
2022/04/21 15:29:01;;;;;;;3.30;2.00;;;16.90;58.00;;;;;;4973976;28;20053;-81
2022/04/21 15:31:28;;;;;;;3.53;1.90;;;17.20;58.70;;;;;;4974904;28;20098;-82
2022/04/21 15:33:56;;;;;;;4.90;2.20;;;17.30;56.90;;;;;;4970670;28;20046;-85
2022/04/21 15:36:23;;;;;;;5.22;2.10;;;17.60;57.20;;;;;;4970950;28;20062;-86
2022/04/21 15:38:51;;;;;;;3.95;2.20;;;17.30;57.40;;;;;;4964768;29;20055;-85
2022/04/21 15:41:19;;;;;;;2.95;1.65;;;17.10;57.30;;;;;;4975665;28;20058;-86
2022/04/21 15:43:46;;;;;;;4.78;2.13;;;17.10;58.00;;;;;;4975022;28;20055;-84
2022/04/21 15:46:14;;;;;;;4.15;2.03;;;17.10;57.80;;;;;;4976538;28;20133;-84
2022/04/21 15:48:41;;;;;;;3.47;1.90;;;17.20;56.70;;;;;;4975375;28;20155;-85
2022/04/21 15:51:08;;;;;;;4.63;1.67;;;17.20;56.20;;;;;;4975380;28;20089;-86
2022/04/21 15:59:06;;;;;;;3.28;1.77;;;17.00;55.90;;;;;;4960614;28;20140;-85
2022/04/21 16:01:33;;;;;;;3.95;1.98;;;17.00;57.90;;;;;;4974771;28;20139;-86
2022/04/21 16:04:02;;;;;;;3.45;1.83;;;16.80;57.00;;;;;;4973895;28;20173;-84
2022/04/21 16:06:30;;;;;;;3.53;1.85;;;16.70;57.30;;;;;;4970933;28;20043;-86
2022/04/21 16:08:58;;;;;;;3.40;1.95;;;16.40;58.10;;;;;;4974068;28;20518;-84
2022/04/21 16:11:27;;;;;;;3.83;2.08;;;16.40;58.50;;;;;;4967704;28;20241;-83
2022/04/21 16:13:56;;;;;;;4.10;1.98;;;16.30;58.20;;;;;;4965644;28;20051;-83
2022/04/21 16:16:26;;;;;;;3.22;1.83;;;16.20;58.30;;;;;;4958120;28;20078;-85
2022/04/21 16:18:54;;;;;;;3.60;2.10;;;16.10;58.30;;;;;;4974240;28;20061;-81
2022/04/21 16:21:21;;;;;;;4.88;2.53;;;16.10;58.70;;;;;;4974338;28;20057;-84
2022/04/21 16:23:48;;;;;;;3.70;2.17;;;16.20;58.40;;;;;;4973583;28;20121;-85
2022/04/21 16:26:16;;;;;;;3.63;2.00;;;16.00;59.00;;;;;;4974871;28;20050;-84
2022/04/21 16:28:46;;;;;;;4.07;2.22;;;16.10;59.50;;;;;;4957102;28;20054;-84
2022/04/21 16:31:14;;;;;;;3.20;1.70;;;16.20;59.50;;;;;;4973137;28;20057;-83
2022/04/21 16:33:41;;;;;;;3.10;1.77;;;16.10;59.50;;;;;;4973679;28;20089;-86
2022/04/21 16:36:09;;;;;;;3.50;2.08;;;16.10;59.60;;;;;;4974346;28;20126;-83
2022/04/21 16:38:37;;;;;;;4.50;2.70;;;16.00;59.90;;;;;;4956478;28;20508;-82
2022/04/21 16:41:04;;;;;;;4.95;2.75;;;16.00;59.20;;;;;;4956381;28;20522;-84
2022/04/21 16:43:31;;;;;;;4.20;2.60;;;15.90;60.00;;;;;;4986471;28;20050;-84
2022/04/21 16:45:59;;;;;;;5.32;2.90;;;15.70;59.80;;;;;;4990916;28;20055;-84
2022/04/21 16:48:26;;;;;;;6.80;2.65;;;15.70;60.10;;;;;;4974036;28;20146;-83
2022/04/21 16:50:53;;;;;;;4.93;2.47;;;15.70;60.00;;;;;;4972804;28;20412;-82
2022/04/21 16:53:20;;;;;;;4.40;2.55;;;15.60;60.30;;;;;;4983235;28;20142;-83
2022/04/21 16:55:48;;;;;;;4.10;2.60;;;15.70;59.90;;;;;;4992088;28;20411;-83
2022/04/21 16:58:15;;;;;;;3.97;2.80;;;15.70;59.40;;;;;;4976170;28;20408;-83
2022/04/21 17:03:28;;;;;;;4.55;2.60;;;15.50;60.20;;;;;;4973984;28;20097;-82
2022/04/21 17:05:55;;;;;;;3.85;2.22;;;15.60;59.50;;;;;;4973394;28;20511;-83
2022/04/21 17:08:22;;;;;;;4.82;1.95;;;15.60;59.80;;;;;;4973670;28;20054;-87
2022/04/21 17:10:50;;;;;;;4.38;2.20;;;15.60;60.40;;;;;;4993956;28;20054;-88
2022/04/21 17:13:17;;;;;;;6.35;3.00;;;15.50;60.40;;;;;;4994278;28;20106;-86
2022/04/21 17:15:44;;;;;;;5.25;2.78;;;15.40;60.80;;;;;;4993311;28;20046;-86
2022/04/21 17:18:12;;;;;;;3.80;2.25;;;15.40;61.10;;;;;;4993141;28;20144;-83
2022/04/21 17:20:41;;;;;;;4.45;2.75;;;15.30;61.50;;;;;;4992775;28;20459;-82
2022/04/21 17:23:08;;;;;;;4.35;2.90;;;15.20;61.60;;;;;;4992476;28;20088;-83
2022/04/21 17:25:35;;;;;;;3.90;2.70;;;15.20;61.50;;;;;;4995480;28;20058;-85
2022/04/21 17:28:03;;;;;;;4.15;2.50;;;15.30;61.00;;;;;;5001325;28;20128;-85
2022/04/21 17:30:31;;;;;;;4.63;3.20;;;15.30;61.40;;;;;;4999636;28;20134;-84
2022/04/21 17:32:59;;;;;;;4.55;2.97;;;15.20;61.50;;;;;;4992028;28;20404;-85
2022/04/21 17:35:26;;;;;;;5.10;3.05;;;15.10;61.60;;;;;;4975017;28;20053;-87
2022/04/21 17:37:55;;;;;;;6.25;3.20;;;15.00;61.80;;;;;;4980162;28;20157;-82
2022/04/21 17:40:22;;;;;;;5.90;3.10;;;14.90;62.60;;;;;;4974997;28;20142;-83
2022/04/21 17:42:49;;;;;;;6.20;3.80;;;14.90;63.10;;;;;;4975842;28;20055;-86
2022/04/21 17:45:16;;;;;;;5.90;3.20;;;14.80;63.20;;;;;;4972896;28;20165;-83
2022/04/21 17:47:44;;;;;;;4.60;3.20;;;14.80;63.50;;;;;;4965158;28;20090;-85
2022/04/21 17:50:13;;;;;;;5.53;3.25;;;14.80;63.80;;;;;;4979990;28;20058;-87
2022/04/21 17:52:41;;;;;;;5.45;3.20;;;14.70;63.90;;;;;;4983789;28;20135;-88
2022/04/21 17:55:10;;;;;;;4.50;3.00;;;14.60;64.00;;;;;;4977191;28;20078;-84
2022/04/21 17:57:37;;;;;;;4.40;2.90;;;14.50;64.40;;;;;;4978267;28;20065;-90
2022/04/21 18:00:06;;;;;;;4.90;2.67;;;14.60;64.30;;;;;;4961152;28;20193;-86
2022/04/21 18:02:33;;;;;;;5.07;3.15;;;14.60;64.70;;;;;;4974347;28;20081;-87
2022/04/21 18:05:00;;;;;;;5.30;3.28;;;14.60;64.20;;;;;;4972781;28;20399;-80
2022/04/21 18:07:27;;;;;;;5.45;3.00;;;14.50;65.50;;;;;;4957949;28;20046;-83
2022/04/21 18:09:54;;;;;;;5.70;3.05;;;14.60;64.10;;;;;;4965278;28;20141;-84
2022/04/21 18:12:23;;;;;;;5.57;3.38;;;14.50;64.40;;;;;;4969879;28;20157;-83
2022/04/21 18:14:51;;;;;;;5.85;3.30;;;14.40;64.10;;;;;;4950550;28;20058;-84
2022/04/21 18:17:19;;;;;;;5.25;3.13;;;14.40;64.10;;;;;;4971997;28;20082;-84
2022/04/21 18:19:47;;;;;;;6.03;3.47;;;14.40;65.10;;;;;;4956499;28;20126;-85
2022/04/21 18:22:15;;;;;;;4.65;2.95;;;14.40;65.40;;;;;;4980724;28;20050;-83
2022/04/21 18:24:43;;;;;;;5.03;3.03;;;14.30;65.30;;;;;;4981709;28;20074;-82
2022/04/21 18:27:10;;;;;;;5.32;2.80;;;14.20;65.20;;;;;;4972826;28;20051;-83
2022/04/21 18:29:39;;;;;;;4.80;3.00;;;14.10;66.20;;;;;;4978217;28;20059;-81
2022/04/21 18:32:08;;;;;;;5.70;3.15;;;14.10;65.70;;;;;;4975864;28;20054;-81
2022/04/21 18:34:36;;;;;;;5.35;3.47;;;14.00;66.10;;;;;;4978460;28;20070;-82
2022/04/21 18:37:05;;;;;;;5.20;3.25;;;13.90;66.70;;;;;;4953047;28;20053;-84
2022/04/21 18:39:32;;;;;;;4.90;2.88;;;13.90;66.20;;;;;;4961672;28;20066;-85
2022/04/21 18:42:00;;;;;;;5.20;2.80;;;13.90;66.50;;;;;;4976230;28;20054;-80
2022/04/21 18:44:27;;;;;;;5.28;2.70;;;13.90;66.50;;;;;;4972088;28;20081;-77
2022/04/21 18:46:56;;;;;;;4.35;2.85;;;13.70;67.00;;;;;;4978766;28;20118;-81
2022/04/21 18:49:25;;;;;;;4.45;2.67;;;13.70;67.90;;;;;;4986904;28;20599;-81